Clearfield, PA

8:48 PM EDT on August 28, 2014 (GMT -0400)
Clearfield-Lawrence | Change Station
CLOSE
Current Station
Airport
Location: Clearfield,
Elevation: 1516 ft
Nearby Weather Stations

Elev 1516 ft 41.05 °N, 78.41 °W | Updated 54 minutes ago

Clear
Clear
63 °F
Feels Like 63 °F
N
5
Wind Variable Wind from NNW

Today
High -- | Low -- °F
--% Chance of Precip.
Yesterday
High -- | Low -- °F
Precip. -- in
6:36 AM 7:52 PM
Waxing Crescent, 11% visible
Pressure 30.09 in
Visibility 10.0 miles
Clouds Clear
Dew Point 49 °F
Humidity 60%
Rainfall 0.00 in
Snow Depth Not available.
UV 0 out of 12
Pollen 9.70 out of 12
Air Quality Not available.
Flu Activity Not available.
METAR KFIG 282354Z AUTO 34004KT 10SM CLR 17/09 A3010 RMK AO2 SLP190 T01720094 10233 20172 53009

More Conditions Fewer Conditions

Pressure 30.09 in
Visibility 10.0 miles
Clouds Clear
Dew Point 49 °F
Humidity 60%
Rainfall 0.00 in
Snow Depth Not available.
UV 0 out of 12
Pollen 9.70 out of 12
Air Quality Not available.
Flu Activity Not available.
METAR KFIG 282354Z AUTO 34004KT 10SM CLR 17/09 A3010 RMK AO2 SLP190 T01720094 10233 20172 53009

More Conditions Fewer Conditions

10-Day Weather Forecast

Almanac

Astronomy

Aug. 28, 2014 Rise Set
Actual Time 6:36 AM EDT 7:52 PM EDT
Civil Twilight 6:07 AM EDT 8:21 PM EDT
Nautical Twilight 5:33 AM EDT 8:55 PM EDT
Astronomical Twilight 4:57 AM EDT 9:31 PM EDT
Moon 9:28 AM EDT (8/28) 9:13 PM EDT (8/28)
Length of Visible Light 14h 13m
Length of Day
13h 16m
Tomorrow will be 2m 35s shorter.
Waxing Crescent, 11% of the Moon is Illuminated
Today
Waxing Crescent
Sep 2
First Quarter
Sep 8
Full
Sep 15
Last Quarter
Sep 24
New

Today's Extremes

State Highs State Lows

Community

WunderPhotos

Upload Photos

1,748,112 photos uploaded!

Nearby

Snow Depth

Station Depth Elevation
No new snow has been reported.

Earthquake Activity

City Distance Mag. Time & Date
No recent earthquake activity has been reported nearby.
Minimum magnitude displayed is 2.5.

Coastal Water Temperatures

Place Temperature
No Stations Reporting

Nearby Weather Stations